sensor_id;sensor_type;location;lat;lon;timestamp;P1;durP1;ratioP1;P2;durP2;ratioP2
60859;SDS011;46694;54.382;9.708;2023-06-05T00:00:25;10.40;;;5.90;;
60859;SDS011;46694;54.382;9.708;2023-06-05T00:03:05;10.40;;;4.53;;
60859;SDS011;46694;54.382;9.708;2023-06-05T00:05:44;5.47;;;4.80;;
60859;SDS011;46694;54.382;9.708;2023-06-05T00:08:24;13.73;;;5.50;;
60859;SDS011;46694;54.382;9.708;2023-06-05T00:11:04;9.13;;;5.57;;
60859;SDS011;46694;54.382;9.708;2023-06-05T00:13:43;11.13;;;5.53;;
60859;SDS011;46694;54.382;9.708;2023-06-05T00:16:23;8.47;;;5.40;;
60859;SDS011;46694;54.382;9.708;2023-06-05T00:19:02;11.13;;;6.43;;
60859;SDS011;46694;54.382;9.708;2023-06-05T00:21:41;10.30;;;5.40;;
60859;SDS011;46694;54.382;9.708;2023-06-05T00:24:21;6.33;;;5.10;;
60859;SDS011;46694;54.382;9.708;2023-06-05T00:27:01;8.80;;;5.07;;
60859;SDS011;46694;54.382;9.708;2023-06-05T00:29:40;10.67;;;5.73;;
60859;SDS011;46694;54.382;9.708;2023-06-05T00:32:20;13.20;;;6.20;;
60859;SDS011;46694;54.382;9.708;2023-06-05T00:34:59;7.53;;;5.00;;
60859;SDS011;46694;54.382;9.708;2023-06-05T00:37:39;17.83;;;7.00;;
60859;SDS011;46694;54.382;9.708;2023-06-05T00:40:19;6.87;;;5.43;;
60859;SDS011;46694;54.382;9.708;2023-06-05T00:42:59;12.93;;;6.27;;
60859;SDS011;46694;54.382;9.708;2023-06-05T00:45:38;14.43;;;6.17;;
60859;SDS011;46694;54.382;9.708;2023-06-05T00:48:17;8.93;;;5.90;;
60859;SDS011;46694;54.382;9.708;2023-06-05T00:50:58;5.83;;;5.10;;
60859;SDS011;46694;54.382;9.708;2023-06-05T00:53:37;10.40;;;5.50;;
60859;SDS011;46694;54.382;9.708;2023-06-05T00:56:18;7.43;;;5.30;;
60859;SDS011;46694;54.382;9.708;2023-06-05T00:58:59;8.90;;;5.40;;
60859;SDS011;46694;54.382;9.708;2023-06-05T01:01:39;6.43;;;5.40;;
60859;SDS011;46694;54.382;9.708;2023-06-05T01:04:22;8.83;;;6.00;;
60859;SDS011;46694;54.382;9.708;2023-06-05T01:07:02;8.67;;;5.80;;
60859;SDS011;46694;54.382;9.708;2023-06-05T01:09:42;11.23;;;5.57;;
60859;SDS011;46694;54.382;9.708;2023-06-05T01:12:26;9.70;;;5.03;;
60859;SDS011;46694;54.382;9.708;2023-06-05T01:15:11;10.53;;;5.90;;
60859;SDS011;46694;54.382;9.708;2023-06-05T01:17:51;9.03;;;5.83;;
60859;SDS011;46694;54.382;9.708;2023-06-05T01:20:31;9.73;;;6.30;;
60859;SDS011;46694;54.382;9.708;2023-06-05T01:23:15;13.03;;;6.57;;
60859;SDS011;46694;54.382;9.708;2023-06-05T01:25:56;9.00;;;5.20;;
60859;SDS011;46694;54.382;9.708;2023-06-05T01:28:38;9.00;;;5.93;;
60859;SDS011;46694;54.382;9.708;2023-06-05T01:31:20;10.17;;;5.23;;
60859;SDS011;46694;54.382;9.708;2023-06-05T01:34:02;8.73;;;5.53;;
60859;SDS011;46694;54.382;9.708;2023-06-05T01:36:51;7.90;;;6.30;;
60859;SDS011;46694;54.382;9.708;2023-06-05T01:39:33;9.80;;;6.40;;
60859;SDS011;46694;54.382;9.708;2023-06-05T01:42:13;11.67;;;6.03;;
60859;SDS011;46694;54.382;9.708;2023-06-05T01:44:53;7.57;;;5.60;;
60859;SDS011;46694;54.382;9.708;2023-06-05T01:47:34;7.53;;;6.33;;
60859;SDS011;46694;54.382;9.708;2023-06-05T01:50:16;6.73;;;6.00;;
60859;SDS011;46694;54.382;9.708;2023-06-05T01:52:57;11.00;;;7.07;;
60859;SDS011;46694;54.382;9.708;2023-06-05T01:55:41;10.60;;;6.23;;
60859;SDS011;46694;54.382;9.708;2023-06-05T01:58:20;11.33;;;6.37;;
60859;SDS011;46694;54.382;9.708;2023-06-05T02:01:00;11.63;;;6.23;;
60859;SDS011;46694;54.382;9.708;2023-06-05T02:03:42;11.23;;;6.50;;
60859;SDS011;46694;54.382;9.708;2023-06-05T02:06:26;15.10;;;7.10;;
60859;SDS011;46694;54.382;9.708;2023-06-05T02:09:06;7.77;;;6.90;;
60859;SDS011;46694;54.382;9.708;2023-06-05T02:11:49;14.20;;;6.60;;
60859;SDS011;46694;54.382;9.708;2023-06-05T02:14:31;10.97;;;7.50;;
60859;SDS011;46694;54.382;9.708;2023-06-05T02:17:14;9.77;;;7.50;;
60859;SDS011;46694;54.382;9.708;2023-06-05T02:19:54;11.07;;;6.50;;
60859;SDS011;46694;54.382;9.708;2023-06-05T02:22:34;12.20;;;7.40;;
60859;SDS011;46694;54.382;9.708;2023-06-05T02:25:14;9.37;;;7.60;;
60859;SDS011;46694;54.382;9.708;2023-06-05T02:27:55;10.40;;;8.37;;
60859;SDS011;46694;54.382;9.708;2023-06-05T02:30:34;8.27;;;7.47;;
60859;SDS011;46694;54.382;9.708;2023-06-05T02:33:14;8.93;;;7.60;;
60859;SDS011;46694;54.382;9.708;2023-06-05T02:35:53;11.20;;;7.47;;
60859;SDS011;46694;54.382;9.708;2023-06-05T02:38:35;8.73;;;7.00;;
60859;SDS011;46694;54.382;9.708;2023-06-05T02:41:15;14.13;;;8.53;;
60859;SDS011;46694;54.382;9.708;2023-06-05T02:43:56;12.20;;;7.63;;
60859;SDS011;46694;54.382;9.708;2023-06-05T02:46:35;10.80;;;8.50;;
60859;SDS011;46694;54.382;9.708;2023-06-05T02:49:15;14.10;;;7.90;;
60859;SDS011;46694;54.382;9.708;2023-06-05T02:51:54;13.80;;;8.83;;
60859;SDS011;46694;54.382;9.708;2023-06-05T02:54:34;13.50;;;8.87;;
60859;SDS011;46694;54.382;9.708;2023-06-05T02:57:14;11.80;;;9.00;;
60859;SDS011;46694;54.382;9.708;2023-06-05T02:59:54;12.03;;;8.97;;
60859;SDS011;46694;54.382;9.708;2023-06-05T03:02:34;11.47;;;9.50;;
60859;SDS011;46694;54.382;9.708;2023-06-05T03:05:17;14.30;;;9.23;;
60859;SDS011;46694;54.382;9.708;2023-06-05T03:07:59;16.50;;;10.37;;
60859;SDS011;46694;54.382;9.708;2023-06-05T03:10:39;12.03;;;9.00;;
60859;SDS011;46694;54.382;9.708;2023-06-05T03:13:19;11.40;;;8.70;;
60859;SDS011;46694;54.382;9.708;2023-06-05T03:15:58;9.60;;;8.60;;
60859;SDS011;46694;54.382;9.708;2023-06-05T03:18:41;16.17;;;10.07;;
60859;SDS011;46694;54.382;9.708;2023-06-05T03:21:21;14.17;;;8.30;;
60859;SDS011;46694;54.382;9.708;2023-06-05T03:24:00;14.97;;;9.37;;
60859;SDS011;46694;54.382;9.708;2023-06-05T03:26:40;16.03;;;9.83;;
60859;SDS011;46694;54.382;9.708;2023-06-05T03:29:21;11.80;;;8.90;;
60859;SDS011;46694;54.382;9.708;2023-06-05T03:32:02;16.87;;;9.30;;
60859;SDS011;46694;54.382;9.708;2023-06-05T03:34:52;10.17;;;8.70;;
60859;SDS011;46694;54.382;9.708;2023-06-05T03:37:31;9.97;;;8.97;;
60859;SDS011;46694;54.382;9.708;2023-06-05T03:40:11;10.97;;;8.90;;
60859;SDS011;46694;54.382;9.708;2023-06-05T03:42:51;13.70;;;9.47;;
60859;SDS011;46694;54.382;9.708;2023-06-05T03:45:31;11.97;;;8.80;;
60859;SDS011;46694;54.382;9.708;2023-06-05T03:48:11;12.60;;;8.53;;
60859;SDS011;46694;54.382;9.708;2023-06-05T03:50:51;13.03;;;10.20;;
60859;SDS011;46694;54.382;9.708;2023-06-05T03:53:31;11.70;;;9.30;;
60859;SDS011;46694;54.382;9.708;2023-06-05T03:56:11;13.70;;;8.70;;
60859;SDS011;46694;54.382;9.708;2023-06-05T03:58:57;12.47;;;8.23;;
60859;SDS011;46694;54.382;9.708;2023-06-05T04:01:36;10.63;;;9.00;;
60859;SDS011;46694;54.382;9.708;2023-06-05T04:04:16;16.30;;;9.77;;
60859;SDS011;46694;54.382;9.708;2023-06-05T04:06:55;10.80;;;8.53;;
60859;SDS011;46694;54.382;9.708;2023-06-05T04:09:35;11.60;;;9.27;;
60859;SDS011;46694;54.382;9.708;2023-06-05T04:12:14;10.67;;;8.23;;
60859;SDS011;46694;54.382;9.708;2023-06-05T04:14:55;12.27;;;9.43;;
60859;SDS011;46694;54.382;9.708;2023-06-05T04:17:35;10.23;;;7.90;;
60859;SDS011;46694;54.382;9.708;2023-06-05T04:20:15;11.40;;;8.50;;
60859;SDS011;46694;54.382;9.708;2023-06-05T04:23:10;9.70;;;8.53;;
60859;SDS011;46694;54.382;9.708;2023-06-05T04:25:50;14.27;;;10.07;;
60859;SDS011;46694;54.382;9.708;2023-06-05T04:28:32;12.80;;;8.40;;
60859;SDS011;46694;54.382;9.708;2023-06-05T04:31:12;12.20;;;8.97;;
60859;SDS011;46694;54.382;9.708;2023-06-05T04:33:52;11.50;;;7.73;;
60859;SDS011;46694;54.382;9.708;2023-06-05T04:36:32;9.83;;;7.93;;
60859;SDS011;46694;54.382;9.708;2023-06-05T04:39:12;9.37;;;7.27;;
60859;SDS011;46694;54.382;9.708;2023-06-05T04:41:56;9.57;;;8.37;;
60859;SDS011;46694;54.382;9.708;2023-06-05T04:44:35;10.83;;;8.70;;
60859;SDS011;46694;54.382;9.708;2023-06-05T04:47:17;12.00;;;8.07;;
60859;SDS011;46694;54.382;9.708;2023-06-05T04:50:00;9.43;;;7.90;;
60859;SDS011;46694;54.382;9.708;2023-06-05T04:52:45;9.97;;;7.93;;
60859;SDS011;46694;54.382;9.708;2023-06-05T04:55:24;7.67;;;6.97;;
60859;SDS011;46694;54.382;9.708;2023-06-05T04:58:04;16.10;;;7.27;;
60859;SDS011;46694;54.382;9.708;2023-06-05T05:00:44;7.67;;;6.87;;
60859;SDS011;46694;54.382;9.708;2023-06-05T05:03:26;12.00;;;8.03;;
60859;SDS011;46694;54.382;9.708;2023-06-05T05:06:07;13.43;;;6.80;;
60859;SDS011;46694;54.382;9.708;2023-06-05T05:08:48;15.23;;;7.90;;
60859;SDS011;46694;54.382;9.708;2023-06-05T05:11:28;9.43;;;7.10;;
60859;SDS011;46694;54.382;9.708;2023-06-05T05:14:07;12.77;;;6.97;;
60859;SDS011;46694;54.382;9.708;2023-06-05T05:16:47;9.13;;;6.40;;
60859;SDS011;46694;54.382;9.708;2023-06-05T05:19:28;8.07;;;6.67;;
60859;SDS011;46694;54.382;9.708;2023-06-05T05:22:08;8.33;;;5.77;;
60859;SDS011;46694;54.382;9.708;2023-06-05T05:24:47;10.53;;;6.37;;
60859;SDS011;46694;54.382;9.708;2023-06-05T05:30:39;9.80;;;6.47;;
60859;SDS011;46694;54.382;9.708;2023-06-05T05:33:19;6.90;;;5.80;;
60859;SDS011;46694;54.382;9.708;2023-06-05T05:35:59;7.43;;;6.10;;
60859;SDS011;46694;54.382;9.708;2023-06-05T05:38:39;11.03;;;6.33;;
60859;SDS011;46694;54.382;9.708;2023-06-05T05:41:21;8.43;;;5.40;;
60859;SDS011;46694;54.382;9.708;2023-06-05T05:44:01;5.80;;;5.20;;
60859;SDS011;46694;54.382;9.708;2023-06-05T05:46:40;8.47;;;5.40;;
60859;SDS011;46694;54.382;9.708;2023-06-05T05:49:20;7.60;;;4.50;;
60859;SDS011;46694;54.382;9.708;2023-06-05T05:52:00;8.80;;;5.07;;
60859;SDS011;46694;54.382;9.708;2023-06-05T05:54:39;4.80;;;4.40;;
60859;SDS011;46694;54.382;9.708;2023-06-05T05:57:19;7.57;;;4.63;;
60859;SDS011;46694;54.382;9.708;2023-06-05T05:59:59;6.67;;;4.87;;
60859;SDS011;46694;54.382;9.708;2023-06-05T06:02:41;8.40;;;4.60;;
60859;SDS011;46694;54.382;9.708;2023-06-05T06:05:21;5.47;;;3.90;;
60859;SDS011;46694;54.382;9.708;2023-06-05T06:08:00;4.87;;;3.83;;
60859;SDS011;46694;54.382;9.708;2023-06-05T06:10:40;4.73;;;2.40;;
60859;SDS011;46694;54.382;9.708;2023-06-05T06:13:20;7.97;;;3.27;;
60859;SDS011;46694;54.382;9.708;2023-06-05T06:16:00;6.60;;;2.97;;
60859;SDS011;46694;54.382;9.708;2023-06-05T06:18:41;6.23;;;2.83;;
60859;SDS011;46694;54.382;9.708;2023-06-05T06:21:20;10.40;;;2.67;;
60859;SDS011;46694;54.382;9.708;2023-06-05T06:24:00;6.97;;;3.33;;
60859;SDS011;46694;54.382;9.708;2023-06-05T06:26:40;4.70;;;2.67;;
60859;SDS011;46694;54.382;9.708;2023-06-05T06:29:20;4.23;;;2.50;;
60859;SDS011;46694;54.382;9.708;2023-06-05T06:32:01;4.80;;;2.77;;
60859;SDS011;46694;54.382;9.708;2023-06-05T06:34:41;5.33;;;2.20;;
60859;SDS011;46694;54.382;9.708;2023-06-05T06:37:23;6.53;;;2.80;;
60859;SDS011;46694;54.382;9.708;2023-06-05T06:40:03;4.80;;;2.50;;
60859;SDS011;46694;54.382;9.708;2023-06-05T06:42:48;5.83;;;2.57;;
60859;SDS011;46694;54.382;9.708;2023-06-05T06:45:29;6.80;;;2.17;;
60859;SDS011;46694;54.382;9.708;2023-06-05T06:48:08;4.73;;;2.17;;
60859;SDS011;46694;54.382;9.708;2023-06-05T06:50:48;12.70;;;2.73;;
60859;SDS011;46694;54.382;9.708;2023-06-05T06:53:28;6.87;;;2.20;;
60859;SDS011;46694;54.382;9.708;2023-06-05T06:56:07;4.47;;;2.37;;
60859;SDS011;46694;54.382;9.708;2023-06-05T06:58:47;5.33;;;2.30;;
60859;SDS011;46694;54.382;9.708;2023-06-05T07:01:27;2.90;;;2.07;;
60859;SDS011;46694;54.382;9.708;2023-06-05T07:04:07;4.53;;;2.53;;
60859;SDS011;46694;54.382;9.708;2023-06-05T07:06:50;4.70;;;2.23;;
60859;SDS011;46694;54.382;9.708;2023-06-05T07:09:30;2.83;;;1.50;;
60859;SDS011;46694;54.382;9.708;2023-06-05T07:12:10;7.27;;;2.07;;
60859;SDS011;46694;54.382;9.708;2023-06-05T07:14:51;4.90;;;1.90;;
60859;SDS011;46694;54.382;9.708;2023-06-05T07:17:31;5.73;;;1.90;;
60859;SDS011;46694;54.382;9.708;2023-06-05T07:20:10;6.53;;;2.03;;
60859;SDS011;46694;54.382;9.708;2023-06-05T07:22:50;5.10;;;2.23;;
60859;SDS011;46694;54.382;9.708;2023-06-05T07:25:30;5.60;;;2.40;;
60859;SDS011;46694;54.382;9.708;2023-06-05T07:28:10;4.20;;;2.43;;
60859;SDS011;46694;54.382;9.708;2023-06-05T07:30:51;5.13;;;1.93;;
60859;SDS011;46694;54.382;9.708;2023-06-05T07:33:30;3.90;;;2.00;;
60859;SDS011;46694;54.382;9.708;2023-06-05T07:36:10;3.37;;;2.30;;
60859;SDS011;46694;54.382;9.708;2023-06-05T07:38:50;5.70;;;2.23;;
60859;SDS011;46694;54.382;9.708;2023-06-05T07:41:29;8.70;;;2.13;;
60859;SDS011;46694;54.382;9.708;2023-06-05T07:44:09;6.47;;;2.10;;
60859;SDS011;46694;54.382;9.708;2023-06-05T07:46:51;4.77;;;2.20;;
60859;SDS011;46694;54.382;9.708;2023-06-05T07:49:30;5.60;;;1.97;;
60859;SDS011;46694;54.382;9.708;2023-06-05T07:52:10;5.07;;;2.00;;
60859;SDS011;46694;54.382;9.708;2023-06-05T07:54:50;3.90;;;1.93;;
60859;SDS011;46694;54.382;9.708;2023-06-05T07:57:29;4.87;;;2.37;;
60859;SDS011;46694;54.382;9.708;2023-06-05T08:00:09;2.90;;;1.63;;
60859;SDS011;46694;54.382;9.708;2023-06-05T08:02:49;5.60;;;2.30;;
60859;SDS011;46694;54.382;9.708;2023-06-05T08:05:30;7.60;;;2.40;;
60859;SDS011;46694;54.382;9.708;2023-06-05T08:08:09;3.30;;;1.80;;
60859;SDS011;46694;54.382;9.708;2023-06-05T08:10:49;5.20;;;2.30;;
60859;SDS011;46694;54.382;9.708;2023-06-05T08:13:29;3.20;;;1.80;;
60859;SDS011;46694;54.382;9.708;2023-06-05T08:16:08;5.10;;;1.80;;
60859;SDS011;46694;54.382;9.708;2023-06-05T08:18:48;6.90;;;2.20;;
60859;SDS011;46694;54.382;9.708;2023-06-05T08:21:27;3.20;;;1.80;;
60859;SDS011;46694;54.382;9.708;2023-06-05T08:24:07;4.50;;;2.23;;
60859;SDS011;46694;54.382;9.708;2023-06-05T08:26:46;11.47;;;3.40;;
60859;SDS011;46694;54.382;9.708;2023-06-05T08:29:26;3.57;;;2.30;;
60859;SDS011;46694;54.382;9.708;2023-06-05T08:32:16;5.17;;;1.50;;
60859;SDS011;46694;54.382;9.708;2023-06-05T08:34:58;3.10;;;1.77;;
60859;SDS011;46694;54.382;9.708;2023-06-05T08:37:37;5.13;;;2.30;;
60859;SDS011;46694;54.382;9.708;2023-06-05T08:40:18;7.03;;;2.00;;
60859;SDS011;46694;54.382;9.708;2023-06-05T08:42:59;5.60;;;2.13;;
60859;SDS011;46694;54.382;9.708;2023-06-05T08:45:40;4.63;;;2.03;;
60859;SDS011;46694;54.382;9.708;2023-06-05T08:48:20;5.20;;;2.27;;
60859;SDS011;46694;54.382;9.708;2023-06-05T08:51:00;8.17;;;2.77;;
60859;SDS011;46694;54.382;9.708;2023-06-05T08:54:00;5.83;;;2.67;;
60859;SDS011;46694;54.382;9.708;2023-06-05T08:56:43;5.10;;;2.10;;
60859;SDS011;46694;54.382;9.708;2023-06-05T08:59:24;5.67;;;2.03;;
60859;SDS011;46694;54.382;9.708;2023-06-05T09:02:04;4.07;;;1.80;;
60859;SDS011;46694;54.382;9.708;2023-06-05T09:04:44;3.80;;;1.70;;
60859;SDS011;46694;54.382;9.708;2023-06-05T09:07:24;3.83;;;1.97;;
60859;SDS011;46694;54.382;9.708;2023-06-05T09:10:04;3.10;;;1.93;;
60859;SDS011;46694;54.382;9.708;2023-06-05T09:12:51;10.63;;;2.80;;
60859;SDS011;46694;54.382;9.708;2023-06-05T09:15:36;6.17;;;2.30;;
60859;SDS011;46694;54.382;9.708;2023-06-05T09:18:15;3.73;;;1.57;;
60859;SDS011;46694;54.382;9.708;2023-06-05T09:20:55;4.63;;;2.17;;
60859;SDS011;46694;54.382;9.708;2023-06-05T09:23:35;2.67;;;1.60;;
60859;SDS011;46694;54.382;9.708;2023-06-05T09:26:15;4.63;;;2.57;;
60859;SDS011;46694;54.382;9.708;2023-06-05T09:28:54;3.73;;;2.27;;
60859;SDS011;46694;54.382;9.708;2023-06-05T09:31:42;3.37;;;2.30;;
60859;SDS011;46694;54.382;9.708;2023-06-05T09:34:27;8.10;;;2.37;;
60859;SDS011;46694;54.382;9.708;2023-06-05T09:37:20;5.00;;;2.93;;
60859;SDS011;46694;54.382;9.708;2023-06-05T09:40:19;11.20;;;2.90;;
60859;SDS011;46694;54.382;9.708;2023-06-05T09:43:21;4.83;;;3.10;;
60859;SDS011;46694;54.382;9.708;2023-06-05T09:46:08;2.90;;;2.40;;
60859;SDS011;46694;54.382;9.708;2023-06-05T09:48:50;5.63;;;3.13;;
60859;SDS011;46694;54.382;9.708;2023-06-05T09:51:36;5.67;;;2.50;;
60859;SDS011;46694;54.382;9.708;2023-06-05T09:54:22;4.60;;;2.70;;
60859;SDS011;46694;54.382;9.708;2023-06-05T09:57:06;4.57;;;1.80;;
60859;SDS011;46694;54.382;9.708;2023-06-05T10:02:33;7.47;;;2.50;;
60859;SDS011;46694;54.382;9.708;2023-06-05T10:05:14;5.07;;;1.90;;
60859;SDS011;46694;54.382;9.708;2023-06-05T10:07:54;4.33;;;2.13;;
60859;SDS011;46694;54.382;9.708;2023-06-05T10:10:35;2.37;;;1.63;;
60859;SDS011;46694;54.382;9.708;2023-06-05T10:13:16;6.83;;;2.50;;
60859;SDS011;46694;54.382;9.708;2023-06-05T10:15:56;3.63;;;1.87;;
60859;SDS011;46694;54.382;9.708;2023-06-05T10:18:36;3.07;;;1.83;;
60859;SDS011;46694;54.382;9.708;2023-06-05T10:21:16;5.83;;;2.57;;
60859;SDS011;46694;54.382;9.708;2023-06-05T10:23:58;3.27;;;1.97;;
60859;SDS011;46694;54.382;9.708;2023-06-05T10:30:11;4.33;;;2.40;;
60859;SDS011;46694;54.382;9.708;2023-06-05T10:33:31;4.87;;;3.00;;
60859;SDS011;46694;54.382;9.708;2023-06-05T10:36:48;9.00;;;4.27;;
60859;SDS011;46694;54.382;9.708;2023-06-05T10:39:44;9.43;;;3.43;;
60859;SDS011;46694;54.382;9.708;2023-06-05T10:42:25;3.83;;;2.60;;
60859;SDS011;46694;54.382;9.708;2023-06-05T10:45:06;9.03;;;3.30;;
60859;SDS011;46694;54.382;9.708;2023-06-05T10:47:50;6.60;;;2.63;;
60859;SDS011;46694;54.382;9.708;2023-06-05T10:50:30;5.00;;;1.97;;
60859;SDS011;46694;54.382;9.708;2023-06-05T10:59:32;11.43;;;3.80;;
60859;SDS011;46694;54.382;9.708;2023-06-05T11:07:37;5.77;;;2.43;;
60859;SDS011;46694;54.382;9.708;2023-06-05T11:10:18;3.00;;;2.50;;
60859;SDS011;46694;54.382;9.708;2023-06-05T11:13:01;7.00;;;3.60;;
60859;SDS011;46694;54.382;9.708;2023-06-05T11:15:40;7.60;;;2.77;;
60859;SDS011;46694;54.382;9.708;2023-06-05T11:18:34;7.03;;;4.00;;
60859;SDS011;46694;54.382;9.708;2023-06-05T11:21:14;10.80;;;4.60;;
60859;SDS011;46694;54.382;9.708;2023-06-05T11:26:53;7.33;;;3.33;;
60859;SDS011;46694;54.382;9.708;2023-06-05T11:29:33;6.33;;;3.57;;
60859;SDS011;46694;54.382;9.708;2023-06-05T11:32:12;8.93;;;3.93;;
60859;SDS011;46694;54.382;9.708;2023-06-05T11:34:52;4.13;;;2.37;;
60859;SDS011;46694;54.382;9.708;2023-06-05T11:37:35;6.90;;;2.93;;
60859;SDS011;46694;54.382;9.708;2023-06-05T11:40:34;3.13;;;2.73;;
60859;SDS011;46694;54.382;9.708;2023-06-05T11:43:14;4.67;;;2.50;;
60859;SDS011;46694;54.382;9.708;2023-06-05T11:45:54;7.57;;;4.10;;
60859;SDS011;46694;54.382;9.708;2023-06-05T11:48:42;3.17;;;1.83;;
60859;SDS011;46694;54.382;9.708;2023-06-05T11:51:32;3.63;;;2.93;;
60859;SDS011;46694;54.382;9.708;2023-06-05T11:54:26;5.33;;;2.67;;
60859;SDS011;46694;54.382;9.708;2023-06-05T11:57:12;4.30;;;2.07;;
60859;SDS011;46694;54.382;9.708;2023-06-05T11:59:51;6.03;;;2.87;;
60859;SDS011;46694;54.382;9.708;2023-06-05T12:02:31;7.20;;;3.00;;
60859;SDS011;46694;54.382;9.708;2023-06-05T12:05:12;6.27;;;2.10;;
60859;SDS011;46694;54.382;9.708;2023-06-05T12:07:52;2.23;;;1.97;;
60859;SDS011;46694;54.382;9.708;2023-06-05T12:10:32;4.13;;;2.20;;
60859;SDS011;46694;54.382;9.708;2023-06-05T12:13:14;9.40;;;3.40;;
60859;SDS011;46694;54.382;9.708;2023-06-05T12:16:00;3.10;;;2.20;;
60859;SDS011;46694;54.382;9.708;2023-06-05T12:18:39;5.43;;;1.97;;
60859;SDS011;46694;54.382;9.708;2023-06-05T12:21:23;9.40;;;2.00;;
60859;SDS011;46694;54.382;9.708;2023-06-05T12:24:04;4.30;;;2.03;;
60859;SDS011;46694;54.382;9.708;2023-06-05T12:27:29;6.37;;;2.80;;
60859;SDS011;46694;54.382;9.708;2023-06-05T12:29:54;3.77;;;2.60;;
60859;SDS011;46694;54.382;9.708;2023-06-05T12:32:34;5.43;;;2.13;;
60859;SDS011;46694;54.382;9.708;2023-06-05T12:35:20;6.43;;;2.33;;
60859;SDS011;46694;54.382;9.708;2023-06-05T12:38:01;2.37;;;1.77;;
60859;SDS011;46694;54.382;9.708;2023-06-05T12:40:42;7.33;;;2.37;;
60859;SDS011;46694;54.382;9.708;2023-06-05T12:43:24;6.93;;;2.33;;
60859;SDS011;46694;54.382;9.708;2023-06-05T12:46:04;3.03;;;1.67;;
60859;SDS011;46694;54.382;9.708;2023-06-05T12:48:46;2.80;;;1.73;;
60859;SDS011;46694;54.382;9.708;2023-06-05T12:51:26;3.87;;;1.90;;
60859;SDS011;46694;54.382;9.708;2023-06-05T12:54:07;7.30;;;2.43;;
60859;SDS011;46694;54.382;9.708;2023-06-05T12:56:47;4.60;;;1.97;;
60859;SDS011;46694;54.382;9.708;2023-06-05T12:59:27;4.10;;;1.90;;
60859;SDS011;46694;54.382;9.708;2023-06-05T13:02:06;4.03;;;2.10;;
60859;SDS011;46694;54.382;9.708;2023-06-05T13:04:46;4.30;;;2.27;;
60859;SDS011;46694;54.382;9.708;2023-06-05T13:07:26;6.50;;;2.50;;
60859;SDS011;46694;54.382;9.708;2023-06-05T13:10:06;4.73;;;2.37;;
60859;SDS011;46694;54.382;9.708;2023-06-05T13:12:47;8.03;;;2.30;;
60859;SDS011;46694;54.382;9.708;2023-06-05T13:15:26;3.10;;;2.00;;
60859;SDS011;46694;54.382;9.708;2023-06-05T13:18:06;4.33;;;2.10;;
60859;SDS011;46694;54.382;9.708;2023-06-05T13:20:48;3.93;;;2.00;;
60859;SDS011;46694;54.382;9.708;2023-06-05T13:23:27;2.83;;;1.97;;
60859;SDS011;46694;54.382;9.708;2023-06-05T13:26:07;6.47;;;2.60;;
60859;SDS011;46694;54.382;9.708;2023-06-05T13:28:46;5.57;;;1.93;;
60859;SDS011;46694;54.382;9.708;2023-06-05T13:31:26;1.80;;;1.70;;
60859;SDS011;46694;54.382;9.708;2023-06-05T13:34:07;4.73;;;2.13;;
60859;SDS011;46694;54.382;9.708;2023-06-05T13:36:47;3.10;;;2.27;;
60859;SDS011;46694;54.382;9.708;2023-06-05T13:39:26;5.17;;;1.87;;
60859;SDS011;46694;54.382;9.708;2023-06-05T13:42:06;4.40;;;1.90;;
60859;SDS011;46694;54.382;9.708;2023-06-05T13:44:47;4.00;;;1.87;;
60859;SDS011;46694;54.382;9.708;2023-06-05T13:47:26;3.80;;;1.70;;
60859;SDS011;46694;54.382;9.708;2023-06-05T13:50:06;2.50;;;2.30;;
60859;SDS011;46694;54.382;9.708;2023-06-05T13:52:46;9.07;;;2.10;;
60859;SDS011;46694;54.382;9.708;2023-06-05T13:55:26;3.70;;;2.30;;
60859;SDS011;46694;54.382;9.708;2023-06-05T13:58:05;5.67;;;2.30;;
60859;SDS011;46694;54.382;9.708;2023-06-05T14:00:45;5.33;;;2.00;;
60859;SDS011;46694;54.382;9.708;2023-06-05T14:03:26;7.43;;;2.67;;
60859;SDS011;46694;54.382;9.708;2023-06-05T14:06:06;5.27;;;1.63;;
60859;SDS011;46694;54.382;9.708;2023-06-05T14:08:45;4.70;;;2.10;;
60859;SDS011;46694;54.382;9.708;2023-06-05T14:11:25;5.80;;;1.93;;
60859;SDS011;46694;54.382;9.708;2023-06-05T14:14:05;5.23;;;2.17;;
60859;SDS011;46694;54.382;9.708;2023-06-05T14:16:44;4.17;;;1.93;;
60859;SDS011;46694;54.382;9.708;2023-06-05T14:19:24;4.07;;;2.07;;
60859;SDS011;46694;54.382;9.708;2023-06-05T14:22:04;6.10;;;2.00;;
60859;SDS011;46694;54.382;9.708;2023-06-05T14:24:44;5.03;;;2.53;;
60859;SDS011;46694;54.382;9.708;2023-06-05T14:27:23;3.37;;;2.13;;
60859;SDS011;46694;54.382;9.708;2023-06-05T14:30:03;2.53;;;2.10;;
60859;SDS011;46694;54.382;9.708;2023-06-05T14:32:43;3.57;;;2.13;;
60859;SDS011;46694;54.382;9.708;2023-06-05T14:35:22;3.30;;;1.70;;
60859;SDS011;46694;54.382;9.708;2023-06-05T14:38:05;6.97;;;2.30;;
60859;SDS011;46694;54.382;9.708;2023-06-05T14:40:53;2.40;;;1.97;;
60859;SDS011;46694;54.382;9.708;2023-06-05T14:43:33;6.77;;;2.53;;
60859;SDS011;46694;54.382;9.708;2023-06-05T14:46:12;6.33;;;2.23;;
60859;SDS011;46694;54.382;9.708;2023-06-05T14:48:52;4.30;;;1.83;;
60859;SDS011;46694;54.382;9.708;2023-06-05T14:51:32;4.57;;;2.17;;
60859;SDS011;46694;54.382;9.708;2023-06-05T14:54:12;3.63;;;2.77;;
60859;SDS011;46694;54.382;9.708;2023-06-05T14:56:52;10.40;;;2.37;;
60859;SDS011;46694;54.382;9.708;2023-06-05T14:59:31;5.63;;;2.60;;
60859;SDS011;46694;54.382;9.708;2023-06-05T15:02:11;7.30;;;2.83;;
60859;SDS011;46694;54.382;9.708;2023-06-05T15:04:50;3.60;;;2.13;;
60859;SDS011;46694;54.382;9.708;2023-06-05T15:07:38;3.67;;;1.90;;
60859;SDS011;46694;54.382;9.708;2023-06-05T15:10:19;2.43;;;2.23;;
60859;SDS011;46694;54.382;9.708;2023-06-05T15:12:59;3.97;;;2.93;;
60859;SDS011;46694;54.382;9.708;2023-06-05T15:15:38;8.63;;;2.93;;
60859;SDS011;46694;54.382;9.708;2023-06-05T15:18:18;9.20;;;2.80;;
60859;SDS011;46694;54.382;9.708;2023-06-05T15:20:57;4.93;;;2.47;;
60859;SDS011;46694;54.382;9.708;2023-06-05T15:23:37;6.27;;;2.60;;
60859;SDS011;46694;54.382;9.708;2023-06-05T15:26:16;3.03;;;2.07;;
60859;SDS011;46694;54.382;9.708;2023-06-05T15:28:56;4.97;;;2.33;;
60859;SDS011;46694;54.382;9.708;2023-06-05T15:31:35;5.73;;;1.90;;
60859;SDS011;46694;54.382;9.708;2023-06-05T15:34:15;4.33;;;2.27;;
60859;SDS011;46694;54.382;9.708;2023-06-05T15:36:55;4.40;;;1.97;;
60859;SDS011;46694;54.382;9.708;2023-06-05T15:39:34;6.73;;;2.03;;
60859;SDS011;46694;54.382;9.708;2023-06-05T15:42:18;4.10;;;2.20;;
60859;SDS011;46694;54.382;9.708;2023-06-05T15:47:47;4.90;;;2.63;;
60859;SDS011;46694;54.382;9.708;2023-06-05T15:50:26;3.80;;;2.60;;
60859;SDS011;46694;54.382;9.708;2023-06-05T15:56:10;3.13;;;1.87;;
60859;SDS011;46694;54.382;9.708;2023-06-05T15:58:50;14.80;;;2.60;;
60859;SDS011;46694;54.382;9.708;2023-06-05T16:01:31;5.43;;;2.20;;
60859;SDS011;46694;54.382;9.708;2023-06-05T16:04:17;2.83;;;2.20;;
60859;SDS011;46694;54.382;9.708;2023-06-05T16:06:57;5.73;;;1.80;;
60859;SDS011;46694;54.382;9.708;2023-06-05T16:09:36;2.63;;;2.03;;
60859;SDS011;46694;54.382;9.708;2023-06-05T16:12:16;2.60;;;1.93;;
60859;SDS011;46694;54.382;9.708;2023-06-05T16:14:56;3.83;;;2.23;;
60859;SDS011;46694;54.382;9.708;2023-06-05T16:17:35;1.90;;;1.60;;
60859;SDS011;46694;54.382;9.708;2023-06-05T16:20:19;4.07;;;2.00;;
60859;SDS011;46694;54.382;9.708;2023-06-05T16:22:59;2.20;;;2.00;;
60859;SDS011;46694;54.382;9.708;2023-06-05T16:25:39;2.40;;;1.90;;
60859;SDS011;46694;54.382;9.708;2023-06-05T16:28:18;3.73;;;1.70;;
60859;SDS011;46694;54.382;9.708;2023-06-05T16:30:58;2.70;;;2.17;;
60859;SDS011;46694;54.382;9.708;2023-06-05T16:33:37;4.37;;;1.97;;
60859;SDS011;46694;54.382;9.708;2023-06-05T16:36:17;4.33;;;1.90;;
60859;SDS011;46694;54.382;9.708;2023-06-05T16:38:56;2.90;;;1.90;;